createdAt,value
2017-08-21T00:00:04.036Z,0
2017-08-21T00:01:05.911Z,0
2017-08-21T00:02:07.800Z,0
2017-08-21T00:03:09.620Z,0
2017-08-21T00:04:11.437Z,0
2017-08-21T00:05:13.317Z,0
2017-08-21T00:06:15.197Z,0
2017-08-21T00:07:17.085Z,0
2017-08-21T00:08:31.238Z,0
2017-08-21T00:09:33.116Z,0
2017-08-21T00:10:34.993Z,0
2017-08-21T00:11:36.882Z,0
2017-08-21T00:12:38.702Z,0
2017-08-21T00:13:40.521Z,0
2017-08-21T00:14:42.399Z,0
2017-08-21T00:15:44.291Z,0
2017-08-21T00:16:46.166Z,0
2017-08-21T00:18:00.320Z,0
2017-08-21T00:19:02.203Z,0
2017-08-21T00:20:04.081Z,0
2017-08-21T00:21:05.962Z,0
2017-08-21T00:22:07.782Z,0
2017-08-21T00:23:09.613Z,0
2017-08-21T00:24:11.503Z,0
2017-08-21T00:25:13.381Z,0
2017-08-21T00:26:15.261Z,0
2017-08-21T00:27:29.426Z,0
2017-08-21T00:28:31.302Z,0
2017-08-21T00:29:33.178Z,0
2017-08-21T00:30:35.068Z,0
2017-08-21T00:31:36.888Z,0
2017-08-21T00:32:38.708Z,0
2017-08-21T00:33:40.587Z,0
2017-08-21T00:34:42.466Z,0
2017-08-21T00:35:44.342Z,0
2017-08-21T00:36:58.496Z,0
2017-08-21T00:38:00.374Z,0
2017-08-21T00:39:02.251Z,0
2017-08-21T00:40:04.130Z,0
2017-08-21T00:41:05.949Z,0
2017-08-21T00:42:07.779Z,0
2017-08-21T00:43:09.658Z,0
2017-08-21T00:44:11.539Z,0
2017-08-21T00:45:13.421Z,0
2017-08-21T00:46:27.569Z,0
2017-08-21T00:47:29.447Z,0
2017-08-21T00:48:31.329Z,0
2017-08-21T00:49:33.217Z,0
2017-08-21T00:50:35.036Z,0
2017-08-21T00:51:36.865Z,0
2017-08-21T00:52:38.756Z,0
2017-08-21T00:53:40.633Z,0
2017-08-21T00:54:42.515Z,0
2017-08-21T00:55:56.678Z,0
2017-08-21T00:56:58.557Z,0
2017-08-21T00:58:00.435Z,0
2017-08-21T00:59:02.313Z,0
2017-08-21T01:00:04.134Z,0
2017-08-21T01:01:05.954Z,0
2017-08-21T01:02:07.845Z,0
2017-08-21T01:03:09.738Z,0
2017-08-21T01:04:11.609Z,0
2017-08-21T01:05:25.762Z,0
2017-08-21T01:06:27.652Z,0
2017-08-21T01:07:29.540Z,0
2017-08-21T01:08:31.417Z,0
2017-08-21T01:09:33.240Z,0
2017-08-21T01:10:35.071Z,0
2017-08-21T01:11:36.965Z,0
2017-08-21T01:12:38.847Z,0
2017-08-21T01:13:40.723Z,0
2017-08-21T01:14:54.876Z,0
2017-08-21T01:15:56.763Z,0
2017-08-21T01:16:58.650Z,0
2017-08-21T01:18:00.538Z,0
2017-08-21T01:19:02.355Z,0
2017-08-21T01:20:04.173Z,0
2017-08-21T01:21:06.066Z,0
2017-08-21T01:22:07.945Z,0
2017-08-21T01:23:09.833Z,0
2017-08-21T01:24:24.035Z,0
2017-08-21T01:25:25.913Z,0
2017-08-21T01:26:27.790Z,0
2017-08-21T01:27:29.664Z,0
2017-08-21T01:28:31.497Z,0
2017-08-21T01:29:33.314Z,0
2017-08-21T01:30:35.207Z,0
2017-08-21T01:31:37.087Z,0
2017-08-21T01:32:38.978Z,0
2017-08-21T01:33:53.131Z,0
2017-08-21T01:34:55.019Z,0
2017-08-21T01:35:56.899Z,0
2017-08-21T01:36:58.790Z,0
2017-08-21T01:38:00.629Z,0
2017-08-21T01:39:02.449Z,0
2017-08-21T01:40:04.340Z,0
2017-08-21T01:41:06.230Z,0
2017-08-21T01:42:08.124Z,0
2017-08-21T01:43:22.280Z,0
2017-08-21T01:44:24.172Z,0
2017-08-21T01:45:26.054Z,0
2017-08-21T01:46:27.937Z,0
2017-08-21T01:47:29.772Z,0
2017-08-21T01:48:31.592Z,0
2017-08-21T01:49:33.480Z,0
2017-08-21T01:50:35.372Z,0
2017-08-21T01:51:37.254Z,0
2017-08-21T01:52:51.409Z,0
2017-08-21T01:53:53.298Z,0
2017-08-21T01:54:55.180Z,0
2017-08-21T01:55:57.059Z,0
2017-08-21T01:56:58.885Z,0
2017-08-21T01:58:00.705Z,0
2017-08-21T01:59:02.595Z,0
2017-08-21T02:00:04.472Z,0
2017-08-21T02:01:06.354Z,0
2017-08-21T02:02:20.515Z,0
2017-08-21T02:03:22.399Z,0
2017-08-21T02:04:24.282Z,0
2017-08-21T02:05:26.175Z,0
2017-08-21T02:06:27.998Z,0
2017-08-21T02:07:29.816Z,0
2017-08-21T02:08:31.706Z,0
2017-08-21T02:09:33.584Z,0
2017-08-21T02:10:35.475Z,0
2017-08-21T02:11:49.632Z,0
2017-08-21T02:12:51.521Z,0
2017-08-21T02:13:53.411Z,0
2017-08-21T02:14:55.309Z,0
2017-08-21T02:15:57.131Z,0
2017-08-21T02:16:58.952Z,0
2017-08-21T02:18:00.846Z,0
2017-08-21T02:19:02.744Z,0
2017-08-21T02:20:04.625Z,0
2017-08-21T02:21:18.782Z,0
2017-08-21T02:22:20.662Z,0
2017-08-21T02:23:22.541Z,0
2017-08-21T02:24:24.439Z,0
2017-08-21T02:25:26.264Z,0
2017-08-21T02:26:28.085Z,0
2017-08-21T02:27:29.964Z,0
2017-08-21T02:28:31.845Z,0
2017-08-21T02:29:33.731Z,0
2017-08-21T02:30:47.885Z,0
2017-08-21T02:31:49.770Z,0
2017-08-21T02:32:51.662Z,0
2017-08-21T02:33:53.544Z,0
2017-08-21T02:34:55.366Z,0
2017-08-21T02:35:57.184Z,0
2017-08-21T02:36:59.072Z,0
2017-08-21T02:38:00.955Z,0
2017-08-21T02:39:02.852Z,0
2017-08-21T02:40:17.059Z,0
2017-08-21T02:41:18.936Z,0
2017-08-21T02:42:20.850Z,0
2017-08-21T02:43:22.727Z,0
2017-08-21T02:44:24.553Z,0
2017-08-21T02:45:26.373Z,0
2017-08-21T02:46:28.257Z,0
2017-08-21T02:47:30.148Z,0
2017-08-21T02:48:32.030Z,0
2017-08-21T02:49:46.184Z,0
2017-08-21T02:50:48.084Z,0
2017-08-21T02:51:49.957Z,0
2017-08-21T02:52:51.838Z,0
2017-08-21T02:53:53.665Z,0
2017-08-21T02:54:55.483Z,0
2017-08-21T02:55:57.371Z,0
2017-08-21T02:56:59.252Z,0
2017-08-21T02:58:01.143Z,0
2017-08-21T02:59:15.299Z,0
2017-08-21T03:00:17.193Z,0
2017-08-21T03:01:19.073Z,0
2017-08-21T03:02:20.955Z,0
2017-08-21T03:03:22.791Z,0
2017-08-21T03:04:24.609Z,0
2017-08-21T03:05:26.491Z,0
2017-08-21T03:06:28.380Z,0
2017-08-21T03:07:30.295Z,0
2017-08-21T03:08:44.455Z,0
2017-08-21T03:09:46.329Z,0
2017-08-21T03:10:48.224Z,0
2017-08-21T03:11:50.104Z,0
2017-08-21T03:12:51.937Z,0
2017-08-21T03:13:53.754Z,0
2017-08-21T03:14:55.653Z,0
2017-08-21T03:15:57.528Z,0
2017-08-21T03:16:59.420Z,0
2017-08-21T03:18:13.586Z,0
2017-08-21T03:19:15.477Z,0
2017-08-21T03:20:17.358Z,0
2017-08-21T03:21:19.239Z,0
2017-08-21T03:22:21.069Z,0
2017-08-21T03:23:22.898Z,0
2017-08-21T03:24:24.789Z,4
2017-08-21T03:25:26.680Z,4
2017-08-21T03:26:28.563Z,4
2017-08-21T03:27:42.720Z,4
2017-08-21T03:28:44.612Z,4
2017-08-21T03:29:46.503Z,8
2017-08-21T03:30:48.388Z,4
2017-08-21T03:31:50.214Z,8
2017-08-21T03:32:52.043Z,8
2017-08-21T03:33:53.924Z,8
2017-08-21T03:34:55.807Z,12
2017-08-21T03:35:57.690Z,12
2017-08-21T03:37:11.857Z,16
2017-08-21T03:38:13.740Z,20
2017-08-21T03:39:15.634Z,24
2017-08-21T03:40:17.519Z,28
2017-08-21T03:41:19.354Z,32
2017-08-21T03:42:21.185Z,36
2017-08-21T03:43:23.070Z,44
2017-08-21T03:44:24.951Z,52
2017-08-21T03:45:26.839Z,60
2017-08-21T03:46:41.046Z,68
2017-08-21T03:47:42.935Z,76
2017-08-21T03:48:44.811Z,84
2017-08-21T03:49:46.695Z,92
2017-08-21T03:50:48.531Z,104
2017-08-21T03:51:50.354Z,116
2017-08-21T03:52:52.237Z,132
2017-08-21T03:53:54.121Z,136
2017-08-21T03:54:56.007Z,156
2017-08-21T03:56:10.166Z,180
2017-08-21T03:57:12.048Z,188
2017-08-21T03:58:13.933Z,192
2017-08-21T03:59:15.817Z,212
2017-08-21T04:00:17.652Z,248
2017-08-21T04:01:19.485Z,288
2017-08-21T04:02:21.366Z,340
2017-08-21T04:03:23.259Z,380
2017-08-21T04:04:25.146Z,416
2017-08-21T04:05:39.308Z,464
2017-08-21T04:06:41.190Z,500
2017-08-21T04:07:43.077Z,532
2017-08-21T04:08:44.963Z,580
2017-08-21T04:09:46.785Z,624
2017-08-21T04:10:48.618Z,676
2017-08-21T04:11:50.515Z,720
2017-08-21T04:12:52.398Z,768
2017-08-21T04:13:54.285Z,812
2017-08-21T04:15:08.443Z,856
2017-08-21T04:16:10.328Z,888
2017-08-21T04:17:12.214Z,936
2017-08-21T04:18:14.098Z,984
2017-08-21T04:19:15.929Z,1020
2017-08-21T04:20:17.767Z,1068
2017-08-21T04:21:19.652Z,1108
2017-08-21T04:22:21.537Z,1144
2017-08-21T04:23:23.424Z,1184
2017-08-21T04:24:37.588Z,1236
2017-08-21T04:25:39.471Z,1280
2017-08-21T04:26:41.358Z,1324
2017-08-21T04:27:43.244Z,1360
2017-08-21T04:28:45.080Z,1400
2017-08-21T04:29:46.905Z,1436
2017-08-21T04:30:48.809Z,1476
2017-08-21T04:31:50.694Z,1528
2017-08-21T04:32:52.591Z,1560
2017-08-21T04:34:06.804Z,1604
2017-08-21T04:35:08.692Z,1640
2017-08-21T04:36:10.580Z,1688
2017-08-21T04:37:12.469Z,1716
2017-08-21T04:38:14.295Z,1708
2017-08-21T04:39:16.120Z,1772
2017-08-21T04:40:18.008Z,1772
2017-08-21T04:41:19.893Z,1700
2017-08-21T04:42:21.780Z,1680
2017-08-21T04:43:35.939Z,1676
2017-08-21T04:44:37.827Z,1716
2017-08-21T04:45:39.711Z,1788
2017-08-21T04:46:41.597Z,1912
2017-08-21T04:47:43.424Z,1992
2017-08-21T04:48:45.250Z,2016
2017-08-21T04:49:47.147Z,2056
2017-08-21T04:50:49.032Z,2104
2017-08-21T04:51:50.919Z,2124
2017-08-21T04:53:05.080Z,2212
2017-08-21T04:54:06.966Z,2332
2017-08-21T04:55:08.852Z,2412
2017-08-21T04:56:10.739Z,2456
2017-08-21T04:57:12.566Z,2444
2017-08-21T04:58:14.389Z,2408
2017-08-21T04:59:16.277Z,2388
2017-08-21T05:00:18.170Z,2380
2017-08-21T05:01:20.059Z,2400
2017-08-21T05:02:34.219Z,2324
2017-08-21T05:03:36.106Z,2304
2017-08-21T05:04:38.002Z,2136
2017-08-21T05:05:39.896Z,2108
2017-08-21T05:06:41.717Z,2108
2017-08-21T05:07:43.540Z,2260
2017-08-21T05:08:45.440Z,2296
2017-08-21T05:09:47.335Z,2092
2017-08-21T05:10:49.224Z,2020
2017-08-21T05:12:03.389Z,2068
2017-08-21T05:13:05.278Z,2160
2017-08-21T05:14:07.163Z,2324
2017-08-21T05:15:09.051Z,2348
2017-08-21T05:16:10.878Z,2516
2017-08-21T05:17:12.713Z,2816
2017-08-21T05:18:14.601Z,3192
2017-08-21T05:19:16.489Z,3596
2017-08-21T05:20:18.384Z,3992
2017-08-21T05:21:32.543Z,4092
2017-08-21T05:22:34.425Z,4612
2017-08-21T05:23:36.310Z,4796
2017-08-21T05:24:38.198Z,5204
2017-08-21T05:25:40.029Z,5664
2017-08-21T05:26:41.861Z,6292
2017-08-21T05:27:43.748Z,6116
2017-08-21T05:28:45.638Z,6040
2017-08-21T05:29:47.527Z,5908
2017-08-21T05:31:01.691Z,5576
2017-08-21T05:32:03.578Z,5664
2017-08-21T05:33:05.464Z,5980
2017-08-21T05:34:07.356Z,5352
2017-08-21T05:35:09.188Z,5200
2017-08-21T05:36:11.012Z,4748
2017-08-21T05:37:12.902Z,4936
2017-08-21T05:38:14.786Z,4856
2017-08-21T05:39:16.679Z,4832
2017-08-21T05:40:30.841Z,4856
2017-08-21T05:41:32.741Z,5092
2017-08-21T05:42:34.626Z,4932
2017-08-21T05:43:36.514Z,5148
2017-08-21T05:44:38.357Z,5256
2017-08-21T05:45:40.182Z,5820
2017-08-21T05:46:42.081Z,5704
2017-08-21T05:47:43.970Z,5496
2017-08-21T05:48:45.861Z,5728
2017-08-21T05:50:00.024Z,5592
2017-08-21T05:51:01.911Z,6404
2017-08-21T05:52:03.802Z,6864
2017-08-21T05:53:05.693Z,7168
2017-08-21T05:54:07.524Z,7272
2017-08-21T05:55:09.351Z,7304
2017-08-21T05:56:11.238Z,7976
2017-08-21T05:57:13.136Z,7552
2017-08-21T05:58:15.036Z,7408
2017-08-21T05:59:29.199Z,6236
2017-08-21T06:00:31.085Z,6508
2017-08-21T06:01:32.983Z,7020
2017-08-21T06:02:34.873Z,6688
2017-08-21T06:03:36.705Z,6808
2017-08-21T06:04:38.531Z,7284
2017-08-21T06:05:40.418Z,6868
2017-08-21T06:06:42.307Z,6540
2017-08-21T06:07:44.198Z,7776
2017-08-21T06:08:58.364Z,8264
2017-08-21T06:10:00.252Z,6816
2017-08-21T06:11:02.159Z,6116
2017-08-21T06:12:04.036Z,5932
2017-08-21T06:13:05.870Z,5576
2017-08-21T06:14:07.694Z,5472
2017-08-21T06:15:09.583Z,6192
2017-08-21T06:16:11.472Z,6832
2017-08-21T06:17:13.364Z,7976
2017-08-21T06:18:27.530Z,7180
2017-08-21T06:19:29.415Z,7548
2017-08-21T06:20:31.311Z,8656
2017-08-21T06:21:33.201Z,9656
2017-08-21T06:22:35.044Z,10276
2017-08-21T06:23:36.870Z,10092
2017-08-21T06:24:38.766Z,8216
2017-08-21T06:25:40.653Z,7528
2017-08-21T06:26:42.553Z,7188
2017-08-21T06:27:56.718Z,8988
2017-08-21T06:28:58.619Z,9860
2017-08-21T06:30:00.507Z,9848
2017-08-21T06:31:02.409Z,8216
2017-08-21T06:32:04.238Z,8436
2017-08-21T06:33:06.066Z,9052
2017-08-21T06:34:07.965Z,8020
2017-08-21T06:35:09.854Z,6224
2017-08-21T06:36:11.746Z,5880
2017-08-21T06:37:25.957Z,7004
2017-08-21T06:38:27.844Z,7044
2017-08-21T06:39:29.741Z,6704
2017-08-21T06:40:31.631Z,7564
2017-08-21T06:41:33.460Z,8128
2017-08-21T06:42:35.285Z,8748
2017-08-21T06:43:37.185Z,8116
2017-08-21T06:44:39.074Z,6996
2017-08-21T06:45:40.975Z,7440
2017-08-21T06:46:55.142Z,6752
2017-08-21T06:47:57.027Z,5784
2017-08-21T06:48:58.914Z,6112
2017-08-21T06:50:00.801Z,6924
2017-08-21T06:51:02.632Z,7980
2017-08-21T06:52:04.472Z,8440
2017-08-21T06:53:06.362Z,7828
2017-08-21T06:54:08.250Z,7172
2017-08-21T06:55:10.138Z,6980
2017-08-21T06:56:24.303Z,6448
2017-08-21T06:57:26.193Z,6572
2017-08-21T06:58:28.082Z,6888
2017-08-21T06:59:29.971Z,7500
2017-08-21T07:00:31.810Z,8228
2017-08-21T07:01:33.636Z,8436
2017-08-21T07:02:35.537Z,8424
2017-08-21T07:03:37.427Z,9040
2017-08-21T07:04:39.314Z,9764
2017-08-21T07:05:53.480Z,10512
2017-08-21T07:06:55.370Z,10560
2017-08-21T07:07:57.269Z,10592
2017-08-21T07:08:59.170Z,10188
2017-08-21T07:10:01.000Z,9828
2017-08-21T07:11:02.840Z,9816
2017-08-21T07:12:04.720Z,10092
2017-08-21T07:13:06.610Z,10292
2017-08-21T07:14:08.502Z,10232
2017-08-21T07:15:22.666Z,9808
2017-08-21T07:16:24.566Z,9164
2017-08-21T07:17:26.465Z,9596
2017-08-21T07:18:28.355Z,10016
2017-08-21T07:19:30.186Z,10524
2017-08-21T07:20:32.027Z,10844
2017-08-21T07:21:33.914Z,10944
2017-08-21T07:22:35.814Z,11400
2017-08-21T07:23:37.705Z,11440
2017-08-21T07:24:51.931Z,11900
2017-08-21T07:25:53.819Z,13064
2017-08-21T07:26:55.723Z,12860
2017-08-21T07:27:57.610Z,12020
2017-08-21T07:28:59.442Z,11596
2017-08-21T07:30:01.272Z,11596
2017-08-21T07:31:03.164Z,11708
2017-08-21T07:32:05.054Z,13752
2017-08-21T07:33:06.956Z,15780
2017-08-21T07:34:21.132Z,13856
2017-08-21T07:35:23.021Z,13504
2017-08-21T07:36:24.912Z,13132
2017-08-21T07:37:26.799Z,13780
2017-08-21T07:38:28.643Z,14820
2017-08-21T07:39:30.473Z,14640
2017-08-21T07:40:32.368Z,12084
2017-08-21T07:41:34.251Z,10164
2017-08-21T07:42:36.158Z,9364
2017-08-21T07:43:50.321Z,9240
2017-08-21T07:44:52.210Z,10068
2017-08-21T07:45:54.096Z,10872
2017-08-21T07:46:56.001Z,11216
2017-08-21T07:47:57.835Z,10292
2017-08-21T07:48:59.661Z,9924
2017-08-21T07:50:01.557Z,9268
2017-08-21T07:51:03.442Z,9308
2017-08-21T07:52:05.333Z,9664
2017-08-21T07:53:19.500Z,10144
2017-08-21T07:54:21.390Z,10512
2017-08-21T07:55:23.287Z,11220
2017-08-21T07:56:25.174Z,11496
2017-08-21T07:57:27.006Z,12484
2017-08-21T07:58:28.837Z,13840
2017-08-21T07:59:30.732Z,13480
2017-08-21T08:00:32.620Z,12668
2017-08-21T08:01:34.531Z,11748
2017-08-21T08:02:48.681Z,10252
2017-08-21T08:03:50.569Z,10208
2017-08-21T08:04:52.462Z,10400
2017-08-21T08:05:54.351Z,10172
2017-08-21T08:06:56.197Z,9384
2017-08-21T08:07:58.023Z,9308
2017-08-21T08:08:59.912Z,9624
2017-08-21T08:10:01.800Z,10372
2017-08-21T08:11:03.702Z,11400
2017-08-21T08:12:17.869Z,12316
2017-08-21T08:13:19.756Z,13452
2017-08-21T08:14:21.646Z,14632
2017-08-21T08:15:23.535Z,13288
2017-08-21T08:16:25.374Z,11088
2017-08-21T08:17:27.202Z,10304
2017-08-21T08:18:29.090Z,10148
2017-08-21T08:19:30.990Z,10428
2017-08-21T08:20:32.884Z,10708
2017-08-21T08:21:47.097Z,9912
2017-08-21T08:22:48.988Z,10436
2017-08-21T08:23:50.878Z,11624
2017-08-21T08:24:52.773Z,12928
2017-08-21T08:25:54.604Z,13848
2017-08-21T08:26:56.433Z,13704
2017-08-21T08:27:58.334Z,12996
2017-08-21T08:29:00.225Z,12300
2017-08-21T08:30:02.115Z,11724
2017-08-21T08:31:16.280Z,9540
2017-08-21T08:32:18.170Z,8504
2017-08-21T08:33:20.070Z,8320
2017-08-21T08:34:21.964Z,8620
2017-08-21T08:35:23.812Z,8548
2017-08-21T08:36:25.630Z,7628
2017-08-21T08:37:27.529Z,7344
2017-08-21T08:38:29.415Z,8008
2017-08-21T08:39:31.317Z,8212
2017-08-21T08:40:45.484Z,10040
2017-08-21T08:41:47.376Z,10980
2017-08-21T08:42:49.268Z,12224
2017-08-21T08:43:51.160Z,12608
2017-08-21T08:44:52.993Z,13560
2017-08-21T08:45:54.827Z,13876
2017-08-21T08:46:56.719Z,12596
2017-08-21T08:47:58.615Z,11116
2017-08-21T08:49:00.519Z,11004
2017-08-21T08:50:14.674Z,11104
2017-08-21T08:51:16.564Z,11788
2017-08-21T08:52:18.465Z,11688
2017-08-21T08:53:20.356Z,8680
2017-08-21T08:54:22.199Z,8132
2017-08-21T08:55:24.041Z,8772
2017-08-21T08:56:25.918Z,8132
2017-08-21T08:57:27.806Z,7540
2017-08-21T08:58:29.708Z,8176
2017-08-21T08:59:43.877Z,9940
2017-08-21T09:00:45.767Z,11076
2017-08-21T09:01:47.657Z,10904
2017-08-21T09:02:49.550Z,10208
2017-08-21T09:03:51.394Z,9120
2017-08-21T09:04:53.233Z,7244
2017-08-21T09:05:55.119Z,5832
2017-08-21T09:06:57.008Z,5132
2017-08-21T09:07:58.899Z,5028
2017-08-21T09:09:13.064Z,5356
2017-08-21T09:10:14.962Z,5696
2017-08-21T09:11:16.850Z,5740
2017-08-21T09:12:18.741Z,5828
2017-08-21T09:13:20.574Z,6288
2017-08-21T09:14:22.403Z,7248
2017-08-21T09:15:25.040Z,8696
2017-08-21T09:16:26.905Z,10184
2017-08-21T09:17:28.798Z,11984
2017-08-21T09:18:42.970Z,12956
2017-08-21T09:19:44.850Z,12816
2017-08-21T09:20:46.750Z,11968
2017-08-21T09:21:48.642Z,11372
2017-08-21T09:22:50.475Z,11092
2017-08-21T09:23:52.329Z,10284
2017-08-21T09:24:54.205Z,9588
2017-08-21T09:25:56.144Z,9452
2017-08-21T09:26:58.043Z,9848
2017-08-21T09:28:12.220Z,9972
2017-08-21T09:29:14.114Z,9784
2017-08-21T09:30:16.012Z,9360
2017-08-21T09:31:17.893Z,9564
2017-08-21T09:32:19.726Z,10288
2017-08-21T09:33:21.566Z,10968
2017-08-21T09:34:23.392Z,10504
2017-08-21T09:35:25.237Z,9624
2017-08-21T09:36:27.060Z,8512
2017-08-21T09:37:41.226Z,7684
2017-08-21T09:38:43.117Z,7372
2017-08-21T09:39:45.496Z,6984
2017-08-21T09:40:47.378Z,6560
2017-08-21T09:41:49.209Z,6264
2017-08-21T09:42:51.035Z,6124
2017-08-21T09:43:52.936Z,6188
2017-08-21T09:44:54.824Z,6188
2017-08-21T09:45:56.712Z,6148
2017-08-21T09:47:11.098Z,6444
2017-08-21T09:48:12.997Z,6752
2017-08-21T09:49:14.887Z,6848
2017-08-21T09:50:16.775Z,6984
2017-08-21T09:51:18.607Z,7196
2017-08-21T09:52:20.434Z,7564
2017-08-21T09:53:22.334Z,8316
2017-08-21T09:54:24.208Z,9384
2017-08-21T09:55:26.098Z,9664
2017-08-21T09:56:40.275Z,10668
2017-08-21T09:57:42.165Z,12336
2017-08-21T09:58:44.066Z,13656
2017-08-21T09:59:45.957Z,13764
2017-08-21T10:00:47.790Z,13488
2017-08-21T10:01:49.618Z,13104
2017-08-21T10:02:51.514Z,12252
2017-08-21T10:03:53.415Z,11472
2017-08-21T10:04:55.315Z,10516
2017-08-21T10:06:09.481Z,10624
2017-08-21T10:07:11.381Z,10140
2017-08-21T10:08:13.295Z,8864
2017-08-21T10:09:15.209Z,8136
2017-08-21T10:10:17.039Z,7312
2017-08-21T10:11:18.867Z,6636
2017-08-21T10:12:20.757Z,6532
2017-08-21T10:13:22.655Z,6496
2017-08-21T10:14:24.560Z,6636
2017-08-21T10:15:38.724Z,6740
2017-08-21T10:16:40.610Z,6724
2017-08-21T10:17:42.507Z,6780
2017-08-21T10:18:44.398Z,6932
2017-08-21T10:19:46.230Z,7148
2017-08-21T10:20:48.061Z,7452
2017-08-21T10:21:49.950Z,7856
2017-08-21T10:22:51.914Z,9268
2017-08-21T10:23:54.134Z,10412
2017-08-21T10:25:08.278Z,10888
2017-08-21T10:26:10.200Z,9776
2017-08-21T10:27:12.087Z,8504
2017-08-21T10:28:13.986Z,8268
2017-08-21T10:29:15.831Z,8712
2017-08-21T10:30:17.660Z,10072
2017-08-21T10:31:19.549Z,11112
2017-08-21T10:32:21.439Z,12200
2017-08-21T10:33:23.332Z,13344
2017-08-21T10:34:37.497Z,14392
2017-08-21T10:35:39.385Z,15028
2017-08-21T10:36:41.286Z,15572
2017-08-21T10:37:43.177Z,15596
2017-08-21T10:38:45.011Z,15040
2017-08-21T10:39:46.840Z,14260
2017-08-21T10:40:48.733Z,13560
2017-08-21T10:41:50.817Z,12912
2017-08-21T10:42:52.709Z,12380
2017-08-21T10:44:06.876Z,11808
2017-08-21T10:45:08.766Z,11024
2017-08-21T10:46:10.656Z,10084
2017-08-21T10:47:12.544Z,9188
2017-08-21T10:48:14.376Z,8536
2017-08-21T10:49:16.204Z,8084
2017-08-21T10:50:18.091Z,8276
2017-08-21T10:51:19.982Z,8352
2017-08-21T10:52:21.873Z,8184
2017-08-21T10:53:36.093Z,8356
2017-08-21T10:54:37.978Z,8596
2017-08-21T10:55:39.880Z,8716
2017-08-21T10:56:41.769Z,8984
2017-08-21T10:57:43.617Z,9244
2017-08-21T10:58:45.447Z,9304
2017-08-21T10:59:47.331Z,9764
2017-08-21T11:00:49.222Z,9980
2017-08-21T11:01:51.115Z,10680
2017-08-21T11:03:05.285Z,11048
2017-08-21T11:04:07.174Z,11832
2017-08-21T11:05:09.063Z,12360
2017-08-21T11:06:10.956Z,11484
2017-08-21T11:07:12.786Z,9508
2017-08-21T11:08:14.615Z,7852
2017-08-21T11:09:16.504Z,7264
2017-08-21T11:10:18.355Z,7368
2017-08-21T11:11:20.202Z,7620
2017-08-21T11:12:34.408Z,8364
2017-08-21T11:13:36.299Z,9500
2017-08-21T11:14:38.183Z,11040
2017-08-21T11:15:40.081Z,12412
2017-08-21T11:16:41.910Z,13596
2017-08-21T11:17:43.741Z,14152
2017-08-21T11:18:45.632Z,14324
2017-08-21T11:19:47.526Z,14840
2017-08-21T11:20:49.418Z,15204
2017-08-21T11:22:03.590Z,15336
2017-08-21T11:23:05.479Z,15120
2017-08-21T11:24:07.380Z,14976
2017-08-21T11:25:09.272Z,14960
2017-08-21T11:26:11.107Z,15320
2017-08-21T11:27:12.936Z,15828
2017-08-21T11:28:14.825Z,16104
2017-08-21T11:29:16.715Z,16028
2017-08-21T11:30:18.611Z,16416
2017-08-21T11:31:32.781Z,15808
2017-08-21T11:32:34.670Z,14740
2017-08-21T11:33:36.574Z,13960
2017-08-21T11:34:38.469Z,13020
2017-08-21T11:35:40.302Z,11700
2017-08-21T11:36:42.133Z,10764
2017-08-21T11:37:44.026Z,9736
2017-08-21T11:38:45.912Z,9420
2017-08-21T11:39:47.811Z,9896
2017-08-21T11:41:01.981Z,10736
2017-08-21T11:42:03.869Z,11500
2017-08-21T11:43:05.758Z,12124
2017-08-21T11:44:07.653Z,12692
2017-08-21T11:45:09.481Z,13280
2017-08-21T11:46:11.311Z,13860
2017-08-21T11:47:13.199Z,14440
2017-08-21T11:48:15.100Z,14900
2017-08-21T11:49:16.998Z,14964
2017-08-21T11:50:31.166Z,14860
2017-08-21T11:51:33.057Z,14608
2017-08-21T11:52:34.945Z,14244
2017-08-21T11:53:36.836Z,13956
2017-08-21T11:54:38.684Z,13664
2017-08-21T11:55:40.516Z,13796
2017-08-21T11:56:42.418Z,14488
2017-08-21T11:57:44.298Z,15620
2017-08-21T11:58:46.190Z,16736
2017-08-21T12:00:00.357Z,17440
2017-08-21T12:01:02.249Z,17792
2017-08-21T12:02:04.136Z,17792
2017-08-21T12:03:06.027Z,17536
2017-08-21T12:04:07.861Z,17216
2017-08-21T12:05:09.691Z,16800
2017-08-21T12:06:11.583Z,16736
2017-08-21T12:07:13.476Z,16992
2017-08-21T12:08:15.372Z,17376
2017-08-21T12:09:29.536Z,17568
2017-08-21T12:10:31.428Z,17376
2017-08-21T12:11:33.319Z,17248
2017-08-21T12:12:35.213Z,17152
2017-08-21T12:13:37.059Z,17120
2017-08-21T12:14:38.892Z,16928
2017-08-21T12:15:40.784Z,16800
2017-08-21T12:16:42.675Z,16608
2017-08-21T12:17:44.565Z,16416
2017-08-21T12:18:58.733Z,15896
2017-08-21T12:20:00.623Z,15564
2017-08-21T12:21:02.514Z,15252
2017-08-21T12:22:04.417Z,15120
2017-08-21T12:23:06.250Z,15280
2017-08-21T12:24:08.081Z,15640
2017-08-21T12:25:09.983Z,15932
2017-08-21T12:26:11.873Z,15984
2017-08-21T12:27:13.767Z,15916
2017-08-21T12:28:27.949Z,15744
2017-08-21T12:29:29.840Z,15536
2017-08-21T12:30:31.747Z,15344
2017-08-21T12:31:33.639Z,15272
2017-08-21T12:32:35.472Z,15032
2017-08-21T12:33:37.303Z,14740
2017-08-21T12:34:39.203Z,14412
2017-08-21T12:35:41.098Z,14228
2017-08-21T12:36:42.988Z,14248
2017-08-21T12:37:57.157Z,14292
2017-08-21T12:38:59.047Z,14092
2017-08-21T12:40:00.936Z,13948
2017-08-21T12:41:02.827Z,13672
2017-08-21T12:42:04.664Z,13204
2017-08-21T12:43:06.507Z,12968
2017-08-21T12:44:08.373Z,12600
2017-08-21T12:45:10.292Z,12304
2017-08-21T12:46:12.185Z,11868
2017-08-21T12:47:26.352Z,11344
2017-08-21T12:48:28.241Z,10732
2017-08-21T12:49:30.131Z,10312
2017-08-21T12:50:32.022Z,10224
2017-08-21T12:51:33.867Z,10456
2017-08-21T12:52:35.701Z,10732
2017-08-21T12:53:37.590Z,10460
2017-08-21T12:54:39.479Z,10080
2017-08-21T12:55:41.370Z,9640
2017-08-21T12:56:55.534Z,8828
2017-08-21T12:57:57.421Z,8148
2017-08-21T12:58:59.323Z,7604
2017-08-21T13:00:01.211Z,7044
2017-08-21T13:01:03.043Z,6548
2017-08-21T13:02:04.872Z,6708
2017-08-21T13:03:06.760Z,7240
2017-08-21T13:04:08.647Z,8484
2017-08-21T13:05:10.536Z,9688
2017-08-21T13:06:24.704Z,10324
2017-08-21T13:07:26.593Z,10676
2017-08-21T13:08:28.487Z,11528
2017-08-21T13:09:30.377Z,11800
2017-08-21T13:10:32.222Z,10400
2017-08-21T13:11:34.052Z,8800
2017-08-21T13:12:35.947Z,7568
2017-08-21T13:13:37.848Z,6756
2017-08-21T13:14:39.738Z,6320
2017-08-21T13:15:53.954Z,6064
2017-08-21T13:16:55.843Z,6032
2017-08-21T13:17:57.733Z,6124
2017-08-21T13:18:59.627Z,6156
2017-08-21T13:20:01.472Z,6192
2017-08-21T13:21:03.297Z,6268
2017-08-21T13:22:05.187Z,6428
2017-08-21T13:23:07.075Z,6440
2017-08-21T13:24:08.979Z,6424
2017-08-21T13:25:23.151Z,6600
2017-08-21T13:26:25.035Z,7256
2017-08-21T13:27:26.923Z,7844
2017-08-21T13:28:28.811Z,7904
2017-08-21T13:29:30.643Z,8188
2017-08-21T13:30:32.471Z,8332
2017-08-21T13:31:34.370Z,8264
2017-08-21T13:32:36.258Z,7792
2017-08-21T13:33:38.154Z,7232
2017-08-21T13:34:52.319Z,6664
2017-08-21T13:35:54.205Z,6544
2017-08-21T13:36:56.103Z,6332
2017-08-21T13:37:58.005Z,6284
2017-08-21T13:38:59.837Z,6292
2017-08-21T13:40:01.670Z,6308
2017-08-21T13:41:03.557Z,6324
2017-08-21T13:42:05.443Z,6340
2017-08-21T13:43:07.337Z,6360
2017-08-21T13:44:21.504Z,6392
2017-08-21T13:45:23.425Z,6420
2017-08-21T13:46:25.318Z,6468
2017-08-21T13:47:27.205Z,6524
2017-08-21T13:48:29.038Z,6624
2017-08-21T13:49:30.867Z,6768
2017-08-21T13:50:32.754Z,6996
2017-08-21T13:51:34.644Z,7324
2017-08-21T13:52:36.545Z,7464
2017-08-21T13:53:50.709Z,7236
2017-08-21T13:54:52.599Z,7044
2017-08-21T13:55:54.487Z,7048
2017-08-21T13:56:56.395Z,7020
2017-08-21T13:57:58.230Z,7204
2017-08-21T13:59:00.059Z,7408
2017-08-21T14:00:01.947Z,7500
2017-08-21T14:01:03.839Z,7488
2017-08-21T14:02:05.729Z,7504
2017-08-21T14:03:19.896Z,7428
2017-08-21T14:04:21.781Z,7432
2017-08-21T14:05:23.678Z,7344
2017-08-21T14:06:25.578Z,7412
2017-08-21T14:07:27.417Z,7764
2017-08-21T14:08:29.250Z,8300
2017-08-21T14:09:31.138Z,8816
2017-08-21T14:10:33.053Z,9292
2017-08-21T14:11:34.928Z,9852
2017-08-21T14:12:49.096Z,9976
2017-08-21T14:13:50.984Z,10160
2017-08-21T14:14:52.901Z,10284
2017-08-21T14:15:54.782Z,10504
2017-08-21T14:16:56.617Z,10156